Gaylord, MI (49734)

6:10 AM EDT on August 04, 2015 (GMT -0400)
GAYLORD ALPINE CENTER | | Change Station
CLOSE
Current Station
Personal Weather Station
Location: Gaylord, MI
Elevation: 1385 ft
Nearby Weather Stations

Elev 1385 ft 45.04 °N, 84.67 °W | Updated 55 seconds ago

Overcast
Overcast
56.1 °F
Feels Like 56.1 °F
N
4.2
Wind Variable Wind from SSE

Today
High -- | Low -- °F
--% Chance of Precip.
Yesterday
High -- | Low -- °F
Precip. -- in
6:27 AM 9:01 PM
Waning Gibbous, 79% visible
Pressure 29.84 in
Visibility 10.0 miles
Clouds Overcast 5500 ft
Dew Point 54 °F
Humidity 91%
Rainfall 0.00 in
Snow Depth Not available.
UV 0 out of 12
Pollen 5.60 out of 12
Air Quality Not available.
Flu Activity Not available.
METAR KGLR 040953Z AUTO 24003KT 10SM OVC055 14/14 A2984 RMK AO2 SLP104 T01390139

More Conditions Fewer Conditions

Pressure 29.84 in
Visibility 10.0 miles
Clouds Overcast 5500 ft
Dew Point 54 °F
Humidity 91%
Rainfall 0.00 in
Snow Depth Not available.
UV 0 out of 12
Pollen 5.60 out of 12
Air Quality Not available.
Flu Activity Not available.
METAR KGLR 040953Z AUTO 24003KT 10SM OVC055 14/14 A2984 RMK AO2 SLP104 T01390139

More Conditions Fewer Conditions

Nowcast | as of 6:00 am EDT on August 4, 2015

At 7 am...mostly cloudy. Isolated showers. Temperature 56. Southwest winds 5 mph. At 9 am...numerous showers. Temperature 58. West winds 7 mph. At 11 am...mostly cloudy. Scattered showers. Temperature 61. West winds 10 mph. At 1 PM...mostly cloudy. Scattered showers. Temperature 63. Northwest winds 10 mph.

×

10-Day Weather Forecast

×

Almanac

Astronomy

Aug. 04, 2015 Rise Set
Actual Time
Civil Twilight
Nautical Twilight
Astronomical Twilight
Moon
Length of Visible Light
Length of Day
Tomorrow will be .
, % of the Moon is Illuminated

Today's Extremes

State Highs State Lows

Community

WunderPhotos

Upload Photos

1,843,883 photos uploaded!

WunderBlogs® & News

Nearby

Air Quality

  Air Quality AQ Index Pollutant
Not available.

Snow Depth

Station Depth Elevation

Earthquake Activity

City Distance Mag. Time & Date
Minimum magnitude displayed is 2.5.

Coastal Water Temperatures

Place Temperature

Stations

Nearby Weather Stations

Station Location Temp. Windchill Dew Point Humidity Wind Precip. Elev Updated Type